Terminal Aerodrome Forecast
Issued by NWS Blacksburg, VA

Current Version | Previous Version | Graphics & Text | Print | Product List | Glossary On
Versions: 1 2 3 4 5 6 7 8 9 10 11 12 13
000
FTUS41 KRNK 250525
TAFBLF
TAF
KBLF 250525Z 2506/2606 31003KT P6SM BKN250
     FM251900 26006KT P6SM VCTS BKN050CB
     FM260000 27004KT P6SM SCT050 BKN080=

USA.gov is the U.S. government's official web portal to all federal, state and local government web resources and services.